Time;durP1;ratioP1;P1;durP2;ratioP2;P2;SDS_P1;SDS_P2;PMS_P1;PMS_P2;Temp;Humidity;BMP_temperature;BMP_pressure;BME280_temperature;BME280_humidity;BME280_pressure;Samples;Min_cycle;Max_cycle;Signal;HPM_P1;HPM_P2
2021/06/08 00:01:24;;;;;;;17.53;12.50;;;;;;;15.22;100.00;101179.28;5070544;28;20175;-72
2021/06/08 00:03:50;;;;;;;13.33;12.03;;;;;;;15.24;100.00;101186.06;5070470;28;20202;-71
2021/06/08 00:06:15;;;;;;;13.10;10.30;;;;;;;15.26;100.00;101178.28;5070601;28;20179;-71
2021/06/08 00:08:40;;;;;;;12.83;11.63;;;;;;;15.27;100.00;101182.66;5070488;28;20174;-71
2021/06/08 00:11:06;;;;;;;14.90;13.47;;;;;;;15.31;100.00;101180.06;5070628;28;20182;-72
2021/06/08 00:13:31;;;;;;;13.77;12.47;;;;;;;15.39;100.00;101179.25;5070594;28;20586;-72
2021/06/08 00:15:57;;;;;;;14.47;12.60;;;;;;;15.42;100.00;101181.34;5069545;28;20185;-72
2021/06/08 00:18:22;;;;;;;13.23;11.93;;;;;;;15.46;100.00;101179.56;5070244;28;20178;-72
2021/06/08 00:20:48;;;;;;;13.07;11.80;;;;;;;15.50;100.00;101179.72;5070846;28;20582;-72
2021/06/08 00:23:13;;;;;;;12.83;11.63;;;;;;;15.56;100.00;101172.91;5070473;28;20664;-72
2021/06/08 00:25:38;;;;;;;11.97;10.87;;;;;;;15.57;100.00;101171.78;5070451;28;20575;-72
2021/06/08 00:28:09;;;;;;;10.93;10.03;;;;;;;15.57;100.00;101171.78;5069931;28;20179;-72
2021/06/08 00:30:35;;;;;;;14.37;12.83;;;;;;;15.56;100.00;101172.91;5070253;28;20227;-72
2021/06/08 00:33:00;;;;;;;12.87;11.77;;;;;;;15.52;100.00;101172.75;5070331;28;20603;-71
2021/06/08 00:35:27;;;;;;;13.23;11.27;;;;;;;15.51;100.00;101173.91;5070084;28;20202;-72
2021/06/08 00:37:53;;;;;;;12.47;11.37;;;;;;;15.48;100.00;101169.06;5070118;28;20186;-72
2021/06/08 00:40:19;;;;;;;13.03;11.67;;;;;;;15.46;100.00;101166.59;5070233;28;20174;-72
2021/06/08 00:42:45;;;;;;;13.23;11.17;;;;;;;15.44;100.00;101165.31;5070339;28;20167;-72
2021/06/08 00:45:11;;;;;;;13.97;12.63;;;;;;;15.45;100.00;101170.50;5070149;28;20200;-72
2021/06/08 00:47:36;;;;;;;12.83;11.63;;;;;;;15.43;100.00;101167.25;5069781;28;20247;-72
2021/06/08 00:50:02;;;;;;;12.10;10.90;;;;;;;15.44;100.00;101165.31;5069648;28;20248;-72
2021/06/08 00:52:28;;;;;;;10.70;9.40;;;;;;;15.43;100.00;101163.69;5070262;28;20261;-71
2021/06/08 00:54:53;;;;;;;11.93;10.80;;;;;;;15.40;100.00;101167.09;5070129;28;20281;-72
2021/06/08 00:57:19;;;;;;;13.13;11.90;;;;;;;15.37;100.00;101162.25;5069866;28;20182;-72
2021/06/08 00:59:44;;;;;;;11.73;10.63;;;;;;;15.32;100.00;101159.66;5070149;28;20202;-72
2021/06/08 01:02:09;;;;;;;11.87;10.77;;;;;;;15.28;100.00;101165.00;5069757;28;20175;-72
2021/06/08 01:04:35;;;;;;;14.20;12.87;;;;;;;15.26;100.00;101164.53;5069924;28;20292;-72
2021/06/08 01:07:00;;;;;;;13.70;12.10;;;;;;;15.24;100.00;101155.78;5069645;28;20185;-72
2021/06/08 01:09:26;;;;;;;14.87;11.23;;;;;;;15.26;100.00;101156.28;5069865;28;20170;-72
2021/06/08 01:11:51;;;;;;;12.33;11.23;;;;;;;15.31;100.00;101155.28;5069857;28;20641;-72
2021/06/08 01:14:16;;;;;;;13.03;11.73;;;;;;;15.32;100.00;101152.19;5069971;28;20193;-72
2021/06/08 01:16:42;;;;;;;13.23;12.10;;;;;;;15.34;100.00;101151.91;5069364;28;20174;-71
2021/06/08 01:19:07;;;;;;;12.67;11.10;;;;;;;15.36;100.00;101147.69;5069867;28;20316;-72
2021/06/08 01:21:34;;;;;;;13.07;11.30;;;;;;;15.37;100.00;101151.25;5070174;28;20520;-72
2021/06/08 01:23:59;;;;;;;13.13;11.70;;;;;;;15.37;100.00;101146.53;5069728;28;20355;-72
2021/06/08 01:26:29;;;;;;;11.57;10.47;;;;;;;15.37;100.00;101143.78;5068212;28;20269;-71
2021/06/08 01:28:59;;;;;;;11.43;10.43;;;;;;;15.34;100.00;101149.94;5070223;28;20251;-72
2021/06/08 01:31:27;;;;;;;12.90;11.60;;;;;;;15.28;100.00;101147.69;5069639;28;20178;-72
2021/06/08 01:33:53;;;;;;;11.17;10.27;;;;;;;15.25;100.00;101143.63;5069669;28;20179;-72
2021/06/08 01:36:22;;;;;;;11.33;9.70;;;;;;;15.16;100.00;101142.81;5069575;28;20525;-71
2021/06/08 01:38:50;;;;;;;11.80;10.60;;;;;;;15.06;100.00;101140.44;5069758;28;20179;-72
2021/06/08 01:41:19;;;;;;;12.10;10.90;;;;;;;14.99;100.00;101148.34;5073239;28;20209;-72
2021/06/08 01:43:46;;;;;;;12.33;11.23;;;;;;;14.95;100.00;101150.94;5073036;28;20229;-72
2021/06/08 01:46:13;;;;;;;10.97;10.07;;;;;;;14.96;100.00;101149.00;5072986;28;20213;-72
2021/06/08 01:48:39;;;;;;;11.33;10.37;;;;;;;14.99;100.00;101151.09;5073293;28;20736;-72
2021/06/08 01:51:20;;;;;;;12.67;11.57;;;;;;;15.05;100.00;101147.06;5072854;28;20257;-72
2021/06/08 01:53:54;;;;;;;12.00;10.90;;;;;;;15.10;100.00;101144.13;5072944;28;20682;-72
2021/06/08 01:56:23;;;;;;;10.17;9.27;;;;;;;15.13;100.00;101144.28;5072826;28;20736;-72
2021/06/08 01:59:08;;;;;;;10.53;9.63;;;;;;;15.16;100.00;101142.81;5072988;28;20373;-72
2021/06/08 02:01:50;;;;;;;12.60;11.50;;;;;;;15.21;100.00;101145.44;5072814;28;20174;-72
2021/06/08 02:04:25;;;;;;;11.97;10.87;;;;;;;15.22;100.00;101144.28;5072683;28;20259;-72
2021/06/08 02:07:06;;;;;;;14.07;12.37;;;;;;;15.23;100.00;101147.84;5072500;28;20519;-72
2021/06/08 02:09:53;;;;;;;11.53;10.53;;;;;;;15.19;100.00;101142.19;5073088;28;20270;-72
2021/06/08 02:12:21;;;;;;;12.20;11.13;;;;;;;15.14;100.00;101140.41;5072715;28;20265;-72
2021/06/08 02:14:56;;;;;;;11.50;10.50;;;;;;;15.06;100.00;101143.19;5073051;28;20222;-72
2021/06/08 02:17:52;;;;;;;11.00;10.10;;;;;;;14.92;100.00;101142.53;5072415;28;20223;-72
2021/06/08 02:20:22;;;;;;;10.43;9.53;;;;;;;14.84;100.00;101152.38;5072538;28;20569;-72
2021/06/08 02:22:53;;;;;;;12.93;10.03;;;;;;;14.84;100.00;101147.69;5072319;28;20174;-72
2021/06/08 02:25:19;;;;;;;12.17;10.63;;;;;;;14.81;100.00;101151.09;5072498;28;20178;-72
2021/06/08 02:27:45;;;;;;;12.67;11.57;;;;;;;14.82;100.00;101155.47;5072259;28;20224;-72
2021/06/08 02:30:11;;;;;;;14.03;10.80;;;;;;;14.85;100.00;101156.75;5072499;28;20266;-72
2021/06/08 02:32:39;;;;;;;11.10;10.13;;;;;;;14.89;100.00;101153.03;5083230;28;20178;-72
2021/06/08 02:35:06;;;;;;;12.37;11.27;;;;;;;14.89;100.00;101147.53;5083875;28;20182;-72
2021/06/08 02:37:34;;;;;;;12.03;11.00;;;;;;;14.90;100.00;101151.09;5091922;28;20181;-72
2021/06/08 02:40:03;;;;;;;13.47;11.43;;;;;;;14.89;100.00;101152.22;5084028;28;20170;-72
2021/06/08 02:42:29;;;;;;;10.23;9.33;;;;;;;14.85;100.00;101154.81;5092364;28;20248;-72
2021/06/08 02:44:57;;;;;;;12.80;11.57;;;;;;;14.82;100.00;101144.47;5091987;28;20217;-72
2021/06/08 02:47:22;;;;;;;11.37;10.37;;;;;;;14.81;100.00;101153.84;5092327;28;20605;-72
2021/06/08 02:49:49;;;;;;;13.73;12.43;;;;;;;14.76;100.00;101154.00;5092494;28;20184;-72
2021/06/08 02:52:19;;;;;;;12.20;9.87;;;;;;;14.77;100.00;101155.63;5089272;28;20633;-72
2021/06/08 02:54:51;;;;;;;10.93;10.03;;;;;;;14.74;100.00;101148.00;5092087;28;20215;-72
2021/06/08 02:57:17;;;;;;;11.43;10.43;;;;;;;14.74;100.00;101150.75;5091836;28;20170;-72
2021/06/08 02:59:46;;;;;;;13.00;11.80;;;;;;;14.72;100.00;101155.75;5091816;28;20174;-72
2021/06/08 03:02:15;;;;;;;13.13;12.03;;;;;;;14.70;100.00;101155.28;5091760;28;20170;-72
2021/06/08 03:05:00;;;;;;;11.73;10.83;;;;;;;14.67;100.00;101158.69;5090494;28;20296;-72
2021/06/08 03:07:27;;;;;;;10.70;9.80;;;;;;;14.67;100.00;101164.19;5091651;28;20170;-72
2021/06/08 03:09:58;;;;;;;11.70;10.67;;;;;;;14.70;100.00;101162.72;5091770;28;20166;-72
2021/06/08 03:12:30;;;;;;;10.40;9.50;;;;;;;14.71;100.00;101161.59;5091581;28;20189;-72
2021/06/08 03:14:57;;;;;;;12.33;11.13;;;;;;;14.70;100.00;101166.28;5091675;28;20166;-72
2021/06/08 03:17:26;;;;;;;12.57;11.37;;;;;;;14.73;100.00;101160.13;5091435;28;20525;-72
2021/06/08 03:19:57;;;;;;;11.87;10.87;;;;;;;14.74;100.00;101174.69;5091579;28;20173;-72
2021/06/08 03:22:25;;;;;;;12.43;11.43;;;;;;;14.74;100.00;101164.50;5090401;28;20223;-72
2021/06/08 03:24:56;;;;;;;12.57;11.33;;;;;;;14.75;100.00;101170.81;5091346;28;20205;-72
2021/06/08 03:27:23;;;;;;;11.67;10.57;;;;;;;14.72;100.00;101171.47;5091165;28;20851;-72
2021/06/08 03:29:49;;;;;;;11.33;10.30;;;;;;;14.68;100.00;101174.03;5091372;28;20176;-72
2021/06/08 03:32:16;;;;;;;12.07;10.97;;;;;;;14.67;100.00;101177.13;5091324;28;20177;-72
2021/06/08 03:34:42;;;;;;;12.07;11.03;;;;;;;14.67;100.00;101177.13;5091290;28;20177;-73
2021/06/08 03:37:09;;;;;;;13.93;12.53;;;;;;;14.70;100.00;101173.72;5091036;28;20174;-72
2021/06/08 03:39:37;;;;;;;13.07;11.90;;;;;;;14.71;100.00;101176.16;5089771;28;20185;-72
2021/06/08 03:42:04;;;;;;;12.57;11.27;;;;;;;14.71;100.00;101176.16;5091189;28;20538;-72
2021/06/08 03:44:30;;;;;;;12.60;11.43;;;;;;;14.71;100.00;101169.84;5091083;28;20657;-72
2021/06/08 03:46:56;;;;;;;12.10;10.93;;;;;;;14.70;100.00;101174.53;5090788;28;20625;-72
2021/06/08 03:49:22;;;;;;;10.93;10.13;;;;;;;14.73;100.00;101175.81;5089755;28;20169;-72
2021/06/08 03:51:53;;;;;;;12.03;10.97;;;;;;;14.74;100.00;101181.00;5091015;28;20178;-72
2021/06/08 03:54:19;;;;;;;12.57;11.37;;;;;;;14.76;100.00;101172.47;5089299;28;20572;-72
2021/06/08 03:56:47;;;;;;;11.33;10.33;;;;;;;14.70;100.00;101180.03;5090552;28;20190;-72
2021/06/08 03:59:14;;;;;;;11.87;10.87;;;;;;;14.68;100.00;101179.56;5089502;28;20181;-72
2021/06/08 04:01:41;;;;;;;11.57;10.67;;;;;;;14.72;100.00;101180.50;5090542;28;20170;-72
2021/06/08 04:04:07;;;;;;;11.13;10.13;;;;;;;14.73;100.00;101184.06;5090625;28;20221;-72
2021/06/08 04:06:33;;;;;;;12.13;10.90;;;;;;;14.70;100.00;101177.28;5090532;28;20212;-72
2021/06/08 04:09:09;;;;;;;10.80;9.90;;;;;;;14.68;100.00;101171.28;5090823;28;20174;-72
2021/06/08 04:11:40;;;;;;;9.00;8.10;;;;;;;14.67;100.00;101177.13;5090736;28;20173;-72
2021/06/08 04:14:06;;;;;;;12.17;11.17;;;;;;;14.66;100.00;101175.50;5090730;28;20265;-72
2021/06/08 04:16:35;;;;;;;10.70;9.70;;;;;;;14.66;100.00;101178.25;5090647;28;20207;-72
2021/06/08 04:19:01;;;;;;;10.47;9.57;;;;;;;14.60;100.00;101174.81;5090817;28;20625;-72
2021/06/08 04:21:27;;;;;;;11.37;10.40;;;;;;;14.62;100.00;101167.09;5090622;28;20193;-72
2021/06/08 04:24:01;;;;;;;11.50;10.33;;;;;;;14.67;100.00;101175.19;5089108;28;20204;-72
2021/06/08 04:26:28;;;;;;;13.37;10.97;;;;;;;14.69;100.00;101172.09;5090236;28;20176;-72
2021/06/08 04:28:55;;;;;;;9.93;9.13;;;;;;;14.71;100.00;101172.59;5090469;28;20158;-72
2021/06/08 04:31:21;;;;;;;11.53;10.43;;;;;;;14.73;100.00;101175.81;5090809;28;20663;-72
2021/06/08 04:33:47;;;;;;;11.13;10.03;;;;;;;14.78;100.00;101176.50;5090538;28;20162;-72
2021/06/08 04:36:13;;;;;;;10.93;10.03;;;;;;;14.86;100.00;101169.38;5090223;28;20192;-72
2021/06/08 04:38:39;;;;;;;11.27;10.27;;;;;;;14.87;100.00;101169.03;5090453;28;20562;-72
2021/06/08 04:41:05;;;;;;;10.43;9.53;;;;;;;14.95;100.00;101170.19;5090262;28;20317;-72
2021/06/08 04:43:31;;;;;;;10.60;9.70;;;;;;;14.96;100.00;101166.31;5090257;28;20202;-72
2021/06/08 04:46:00;;;;;;;9.97;9.10;;;;;;;14.96;100.00;101173.75;5090275;28;20174;-72
2021/06/08 04:48:26;;;;;;;10.03;9.20;;;;;;;14.94;100.00;101179.59;5090121;28;20243;-72
2021/06/08 04:50:52;;;;;;;9.73;8.90;;;;;;;14.88;100.00;101180.84;5090263;28;20201;-72
2021/06/08 04:53:17;;;;;;;9.60;8.70;;;;;;;14.83;100.00;101178.28;5090284;28;20170;-72
2021/06/08 04:55:43;;;;;;;10.00;9.10;;;;;;;14.79;100.00;101178.13;5088329;28;20178;-72
2021/06/08 04:58:08;;;;;;;8.80;7.87;;;;;;;14.79;100.00;101183.63;5088628;28;20238;-72
2021/06/08 05:00:43;;;;;;;8.40;7.70;;;;;;;14.72;100.00;101179.72;5090138;28;20181;-72
2021/06/08 05:03:12;;;;;;;10.20;9.37;;;;;;;14.64;100.00;101175.81;5090213;28;20169;-71
2021/06/08 05:05:40;;;;;;;9.90;9.10;;;;;;;14.66;100.00;101172.75;5090132;28;20201;-72
2021/06/08 05:08:08;;;;;;;10.23;9.23;;;;;;;14.73;100.00;101184.06;5089789;28;20169;-72
2021/06/08 05:10:40;;;;;;;9.37;8.37;;;;;;;14.74;100.00;101181.00;5089953;28;20195;-72
2021/06/08 05:13:09;;;;;;;9.97;9.10;;;;;;;14.78;100.00;101182.00;5090330;28;20618;-71
2021/06/08 05:15:36;;;;;;;10.53;9.63;;;;;;;14.87;100.00;101174.56;5093268;28;20166;-72
2021/06/08 05:18:05;;;;;;;9.27;8.47;;;;;;;14.92;100.00;101178.28;5093585;28;20511;-72
2021/06/08 05:20:31;;;;;;;9.57;8.77;;;;;;;15.01;100.00;101184.59;5092650;28;20198;-72
2021/06/08 05:22:56;;;;;;;10.87;10.00;;;;;;;15.06;100.00;101188.03;5093601;28;20170;-72
2021/06/08 05:25:22;;;;;;;10.63;9.60;;;;;;;15.04;99.92;101184.75;5093841;28;20166;-72
2021/06/08 05:27:48;;;;;;;10.97;9.87;;;;;;;15.01;100.00;101179.09;5093416;28;20589;-72
2021/06/08 05:30:14;;;;;;;10.57;9.50;;;;;;;15.03;100.00;101179.56;5093772;28;20197;-72
2021/06/08 05:32:43;;;;;;;11.07;10.10;;;;;;;15.02;100.00;101194.47;5093608;28;20291;-71
2021/06/08 05:35:10;;;;;;;11.77;10.77;;;;;;;15.15;100.00;101199.00;5093600;28;20218;-71
2021/06/08 05:37:43;;;;;;;11.60;10.60;;;;;;;15.13;100.00;101188.34;5093287;28;20170;-71
2021/06/08 05:40:10;;;;;;;11.03;10.03;;;;;;;15.25;100.00;101189.63;5093537;28;20240;-74
2021/06/08 05:42:36;;;;;;;12.07;11.07;;;;;;;15.37;100.00;101196.09;5093569;28;20173;-73
2021/06/08 05:45:03;;;;;;;11.53;10.47;;;;;;;15.50;99.47;101196.25;5093421;28;20201;-73
2021/06/08 05:47:29;;;;;;;12.03;10.83;;;;;;;15.48;98.98;101189.13;5093064;28;20273;-73
2021/06/08 05:49:54;;;;;;;12.63;11.50;;;;;;;15.29;98.87;101188.66;5093236;28;20696;-73
2021/06/08 05:52:20;;;;;;;11.20;10.13;;;;;;;15.41;98.51;101190.75;5093389;28;20193;-73
2021/06/08 05:54:46;;;;;;;11.70;10.70;;;;;;;15.32;98.89;101193.50;5092889;28;20648;-74
2021/06/08 05:57:12;;;;;;;12.77;11.63;;;;;;;15.06;99.55;101200.97;5093389;28;20235;-74
2021/06/08 05:59:38;;;;;;;12.40;11.23;;;;;;;14.97;100.00;101195.44;5093466;28;20174;-73
2021/06/08 06:02:05;;;;;;;11.70;10.60;;;;;;;15.10;100.00;101201.94;5093104;28;20165;-74
2021/06/08 06:04:31;;;;;;;11.20;10.20;;;;;;;15.24;99.62;101199.03;5093392;28;20209;-73
2021/06/08 06:06:58;;;;;;;12.50;10.97;;;;;;;15.25;99.80;101204.22;5091979;28;20554;-73
2021/06/08 06:09:24;;;;;;;16.27;11.70;;;;;;;15.22;100.00;101202.09;5091881;28;20173;-73
2021/06/08 06:11:53;;;;;;;13.83;11.77;;;;;;;15.24;100.00;101208.09;5093947;28;20169;-73
2021/06/08 06:14:28;;;;;;;12.07;11.03;;;;;;;15.33;99.04;101203.38;5092935;28;20170;-73
2021/06/08 06:16:56;;;;;;;16.37;10.00;;;;;;;15.29;99.89;101215.38;5092913;28;20243;-73
2021/06/08 06:19:25;;;;;;;11.80;10.80;;;;;;;15.41;99.64;101204.53;5093050;28;20178;-72
2021/06/08 06:21:55;;;;;;;10.37;9.43;;;;;;;15.45;98.86;101211.78;5092881;28;20689;-73
2021/06/08 06:24:21;;;;;;;13.37;11.40;;;;;;;15.47;98.73;101206.75;5092707;28;20194;-73
2021/06/08 06:26:47;;;;;;;10.00;9.23;;;;;;;15.50;98.53;101207.28;5092268;28;20233;-73
2021/06/08 06:29:14;;;;;;;11.67;10.67;;;;;;;15.54;98.67;101202.72;5092569;28;20180;-78
2021/06/08 06:31:49;;;;;;;11.60;10.67;;;;;;;15.58;98.62;101209.19;5092643;28;20651;-80
2021/06/08 06:34:17;;;;;;;9.50;8.70;;;;;;;15.66;97.64;101214.72;5092484;28;20170;-71
2021/06/08 06:36:46;;;;;;;11.07;10.13;;;;;;;15.63;97.82;101211.84;5088291;28;20178;-71
2021/06/08 06:39:21;;;;;;;11.67;10.67;;;;;;;15.67;97.83;101212.78;5089012;28;20661;-71
2021/06/08 06:41:50;;;;;;;10.13;9.23;;;;;;;15.65;97.15;101220.56;5084019;28;20222;-71
2021/06/08 06:44:18;;;;;;;10.73;9.83;;;;;;;15.51;96.87;101215.22;5080569;28;20327;-71
2021/06/08 06:46:45;;;;;;;11.87;10.83;;;;;;;15.41;96.99;101207.28;5071956;28;20167;-70
2021/06/08 06:49:11;;;;;;;10.50;9.60;;;;;;;15.44;97.77;101212.94;5071052;28;20166;-71
2021/06/08 06:51:37;;;;;;;12.23;11.03;;;;;;;15.57;98.60;101211.13;5072523;28;20554;-71
2021/06/08 06:54:04;;;;;;;13.47;12.17;;;;;;;15.58;98.03;101215.50;5071767;28;20175;-71
2021/06/08 06:56:29;;;;;;;12.13;11.23;;;;;;;15.55;98.62;101216.16;5071527;28;20701;-71
2021/06/08 06:58:56;;;;;;;11.63;10.43;;;;;;;15.67;97.92;101215.53;5072211;28;20254;-71
2021/06/08 07:01:26;;;;;;;11.40;10.37;;;;;;;15.77;97.98;101220.72;5071834;28;20572;-71
2021/06/08 07:03:57;;;;;;;12.40;11.30;;;;;;;15.90;97.99;101216.13;5071753;28;20209;-71
2021/06/08 07:06:24;;;;;;;12.13;10.87;;;;;;;15.93;97.47;101213.53;5071570;28;20617;-71
2021/06/08 07:08:54;;;;;;;10.10;9.20;;;;;;;15.90;96.36;101224.38;5071684;28;20574;-71
2021/06/08 07:11:20;;;;;;;11.37;10.27;;;;;;;15.89;95.51;101220.81;5070342;28;20202;-71
2021/06/08 07:13:47;;;;;;;11.43;10.43;;;;;;;15.85;96.07;101219.06;5071661;28;20534;-71
2021/06/08 07:16:14;;;;;;;11.77;10.73;;;;;;;15.82;97.20;101222.47;5071341;28;20197;-71
2021/06/08 07:18:41;;;;;;;10.37;9.57;;;;;;;15.82;97.61;101225.25;5071227;28;20167;-72
2021/06/08 07:21:07;;;;;;;13.60;11.60;;;;;;;15.65;97.62;101226.09;5071599;28;20514;-72
2021/06/08 07:23:34;;;;;;;12.17;10.97;;;;;;;15.79;97.76;101228.66;5071323;28;20229;-71
2021/06/08 07:25:59;;;;;;;10.63;9.40;;;;;;;15.91;97.61;101228.75;5071405;28;20194;-72
2021/06/08 07:28:26;;;;;;;11.77;10.67;;;;;;;16.00;96.04;101227.63;5070922;28;20653;-72
2021/06/08 07:30:51;;;;;;;10.27;9.27;;;;;;;16.04;94.71;101225.81;5079126;28;20224;-71
2021/06/08 07:33:33;;;;;;;12.07;11.07;;;;;;;16.02;95.12;101239.13;5087351;28;20573;-71
2021/06/08 07:36:44;;;;;;;11.60;10.47;;;;;;;16.14;94.31;101234.88;5080137;28;20182;-72
2021/06/08 07:39:28;;;;;;;11.73;10.63;;;;;;;16.24;93.82;101227.06;5042459;28;20570;-72
2021/06/08 07:42:15;;;;;;;12.17;9.83;;;;;;;16.30;93.28;101225.72;5070966;28;20857;-72
2021/06/08 07:44:51;;;;;;;11.53;10.43;;;;;;;16.53;92.30;101234.56;5080086;28;20206;-72
2021/06/08 07:47:19;;;;;;;10.70;9.77;;;;;;;16.55;91.18;101224.00;5090468;28;20636;-72
2021/06/08 07:49:49;;;;;;;10.27;9.27;;;;;;;16.54;89.65;101227.91;5083612;28;20171;-72
2021/06/08 07:52:16;;;;;;;10.17;9.37;;;;;;;16.54;90.59;101222.38;5090406;28;20169;-72
2021/06/08 07:54:41;;;;;;;10.53;9.63;;;;;;;16.68;90.62;101229.66;5090868;28;20568;-72
2021/06/08 07:57:07;;;;;;;11.00;9.93;;;;;;;16.76;90.25;101228.78;5090846;28;20174;-72
2021/06/08 07:59:34;;;;;;;9.60;8.60;;;;;;;16.89;89.57;101224.97;5090919;28;20174;-72
2021/06/08 08:02:00;;;;;;;9.23;8.50;;;;;;;16.97;88.78;101226.06;5090862;28;20216;-71
2021/06/08 08:04:25;;;;;;;10.07;9.17;;;;;;;16.93;86.89;101223.97;5090540;28;20209;-72
2021/06/08 08:06:52;;;;;;;11.27;9.53;;;;;;;16.92;89.57;101225.13;5090414;28;20265;-72
2021/06/08 08:09:19;;;;;;;11.07;10.03;;;;;;;17.02;89.26;101237.69;5089706;28;20540;-72
2021/06/08 08:11:47;;;;;;;10.87;9.23;;;;;;;16.99;88.21;101230.09;5090841;28;20196;-72
2021/06/08 08:14:15;;;;;;;10.20;9.30;;;;;;;16.89;88.48;101244.28;5090797;28;20188;-71
2021/06/08 08:16:46;;;;;;;10.13;9.23;;;;;;;16.92;86.99;101249.13;5090344;28;20166;-72
2021/06/08 08:19:12;;;;;;;10.60;9.10;;;;;;;17.24;88.70;101233.81;5090562;28;20717;-72
2021/06/08 08:21:38;;;;;;;10.83;9.93;;;;;;;17.38;86.68;101239.06;5090503;28;20197;-72
2021/06/08 08:24:03;;;;;;;8.83;7.97;;;;;;;17.38;86.59;101228.03;5090781;28;20240;-72
2021/06/08 08:26:29;;;;;;;8.23;7.53;;;;;;;17.34;84.78;101236.16;5090280;28;20174;-72
2021/06/08 08:28:59;;;;;;;10.57;9.67;;;;;;;17.33;84.76;101234.53;5090459;28;20685;-71
2021/06/08 08:31:28;;;;;;;10.23;9.33;;;;;;;17.30;85.87;101237.16;5090507;28;20200;-72
2021/06/08 08:33:54;;;;;;;10.30;7.63;;;;;;;17.52;87.13;101239.59;5088482;28;20642;-72
2021/06/08 08:36:20;;;;;;;9.90;9.10;;;;;;;17.70;85.20;101238.31;5080667;28;20188;-72
2021/06/08 08:38:46;;;;;;;11.20;10.07;;;;;;;17.57;85.25;101228.31;5081224;28;20245;-72
2021/06/08 08:41:11;;;;;;;9.77;8.97;;;;;;;17.64;85.94;101242.38;5085874;28;20177;-72
2021/06/08 08:43:45;;;;;;;10.13;9.33;;;;;;;17.78;85.21;101228.31;5070539;28;20609;-71
2021/06/08 08:46:11;;;;;;;10.20;9.33;;;;;;;17.91;86.64;101226.38;5070721;28;20173;-72
2021/06/08 08:48:40;;;;;;;11.73;10.40;;;;;;;18.21;87.09;101229.78;5070617;28;20178;-71
2021/06/08 08:51:05;;;;;;;9.37;8.57;;;;;;;18.07;84.35;101236.44;5074776;28;20249;-71
2021/06/08 08:53:31;;;;;;;9.20;8.50;;;;;;;17.83;84.75;101228.91;5074576;28;20182;-71
2021/06/08 08:55:57;;;;;;;10.80;9.87;;;;;;;17.74;84.46;101232.91;5074824;28;20184;-71
2021/06/08 08:58:25;;;;;;;9.00;8.30;;;;;;;17.88;86.31;101229.84;5073118;28;20181;-72
2021/06/08 09:00:50;;;;;;;12.70;10.17;;;;;;;18.18;86.44;101236.81;5074613;28;20178;-72
2021/06/08 09:03:18;;;;;;;9.93;8.13;;;;;;;18.14;85.05;101227.59;5074420;28;20282;-71
2021/06/08 09:05:43;;;;;;;8.73;8.07;;;;;;;18.00;84.62;101229.88;5074348;28;20563;-72
2021/06/08 09:08:09;;;;;;;9.40;8.53;;;;;;;17.97;85.57;101231.38;5074373;28;20178;-71
2021/06/08 09:10:37;;;;;;;9.77;8.87;;;;;;;17.99;86.86;101231.03;5073099;28;20181;-71
2021/06/08 09:13:03;;;;;;;10.90;9.93;;;;;;;18.21;85.11;101236.13;5073984;28;20183;-72
2021/06/08 09:15:29;;;;;;;11.07;10.07;;;;;;;18.20;83.49;101233.69;5089081;28;20196;-71
2021/06/08 09:17:55;;;;;;;12.37;9.97;;;;;;;18.12;84.01;101233.47;5094181;28;20180;-71
2021/06/08 09:20:21;;;;;;;10.90;10.00;;;;;;;18.29;83.66;101238.00;5094562;28;20606;-72
2021/06/08 09:22:55;;;;;;;10.63;9.60;;;;;;;18.17;85.44;101234.41;5093635;28;20181;-71
2021/06/08 09:25:41;;;;;;;9.87;9.03;;;;;;;18.51;84.20;101225.66;5089102;28;20278;-72
2021/06/08 09:28:12;;;;;;;9.80;8.90;;;;;;;18.51;83.54;101230.38;5094178;28;20186;-71
2021/06/08 09:30:38;;;;;;;11.43;10.43;;;;;;;18.45;83.80;101232.59;5094272;28;20652;-71
2021/06/08 09:33:17;;;;;;;12.20;11.17;;;;;;;18.17;83.24;101229.66;5094264;28;20178;-72
2021/06/08 09:35:52;;;;;;;11.50;10.50;;;;;;;18.12;83.90;101229.91;5094204;28;20200;-71
2021/06/08 09:38:18;;;;;;;11.30;10.40;;;;;;;17.97;84.16;101225.84;5093944;28;20252;-71
2021/06/08 09:40:44;;;;;;;11.80;10.80;;;;;;;18.22;84.25;101221.13;5094092;28;20693;-71
2021/06/08 09:43:11;;;;;;;10.23;9.37;;;;;;;18.50;81.50;101221.28;5092739;28;20581;-72
2021/06/08 09:45:40;;;;;;;10.43;9.53;;;;;;;18.32;80.54;101215.16;5094020;28;20182;-71
2021/06/08 09:48:06;;;;;;;11.83;10.63;;;;;;;18.50;84.59;101218.50;5093790;28;20166;-71
2021/06/08 09:50:45;;;;;;;12.23;10.93;;;;;;;18.57;83.20;101213.22;5093921;28;20625;-71
2021/06/08 09:53:24;;;;;;;10.83;9.90;;;;;;;18.78;82.37;101215.88;5093760;28;20178;-71
2021/06/08 09:55:58;;;;;;;11.23;10.23;;;;;;;18.95;81.85;101221.19;5093812;28;20640;-72
2021/06/08 09:58:26;;;;;;;11.20;10.20;;;;;;;19.01;80.88;101216.19;5086492;28;20171;-72
2021/06/08 10:01:08;;;;;;;11.53;10.50;;;;;;;18.93;82.69;101208.81;5072957;28;20189;-72
2021/06/08 10:03:46;;;;;;;11.10;10.00;;;;;;;19.19;81.88;101208.41;5073275;28;20197;-72
2021/06/08 10:06:18;;;;;;;9.87;8.97;;;;;;;19.23;77.48;101214.84;5073348;28;20231;-72
2021/06/08 10:08:55;;;;;;;7.17;6.50;;;;;;;19.04;78.85;101221.03;5073658;28;20637;-72
2021/06/08 10:11:24;;;;;;;11.10;10.07;;;;;;;19.11;80.54;101215.72;5072927;28;20192;-72
2021/06/08 10:13:58;;;;;;;11.80;10.80;;;;;;;18.84;78.05;101214.50;5072661;28;20202;-72
2021/06/08 10:16:31;;;;;;;10.63;9.73;;;;;;;18.80;76.86;101207.22;5071449;28;20223;-77
2021/06/08 10:18:58;;;;;;;10.70;9.10;;;;;;;18.82;77.51;101199.38;5072569;28;20174;-72
2021/06/08 10:21:35;;;;;;;11.70;10.53;;;;;;;18.68;77.46;101205.28;5072645;28;20642;-71
2021/06/08 10:24:06;;;;;;;10.77;9.87;;;;;;;19.12;79.85;101200.69;5072421;28;20260;-71
2021/06/08 10:26:35;;;;;;;10.27;9.23;;;;;;;19.45;77.64;101203.22;5072188;28;20266;-71
2021/06/08 10:29:09;;;;;;;12.47;11.37;;;;;;;19.32;76.44;101201.66;5072819;28;20192;-71
2021/06/08 10:31:36;;;;;;;11.33;10.23;;;;;;;19.15;78.07;101202.75;5072246;28;20198;-71
2021/06/08 10:34:05;;;;;;;10.73;9.83;;;;;;;19.28;77.20;101193.25;5072291;28;20236;-71
2021/06/08 10:36:31;;;;;;;10.70;9.83;;;;;;;19.48;76.78;101194.19;5071985;28;20583;-72
2021/06/08 10:38:58;;;;;;;12.13;11.03;;;;;;;19.06;77.70;101188.25;5072220;28;20174;-71
2021/06/08 10:41:24;;;;;;;11.53;10.53;;;;;;;19.28;78.80;101186.91;5072257;28;20175;-71
2021/06/08 10:43:49;;;;;;;9.70;8.80;;;;;;;19.41;77.69;101188.47;5072000;28;20609;-71
2021/06/08 10:46:41;;;;;;;7.63;7.00;;;;;;;19.54;74.64;101190.06;5071798;28;20662;-71
2021/06/08 10:49:07;;;;;;;8.20;7.53;;;;;;;19.83;75.49;101185.28;5072147;28;20183;-71
2021/06/08 10:51:35;;;;;;;7.57;6.90;;;;;;;19.82;70.13;101181.72;5071928;28;20174;-72
2021/06/08 10:54:02;;;;;;;7.67;6.80;;;;;;;19.75;69.20;101180.72;5071569;28;20261;-71
2021/06/08 10:56:30;;;;;;;9.10;8.30;;;;;;;20.03;71.00;101181.44;5071874;28;20209;-72
2021/06/08 10:59:04;;;;;;;8.87;8.07;;;;;;;20.17;71.33;101183.78;5071900;28;20178;-73
2021/06/08 11:01:29;;;;;;;8.03;7.17;;;;;;;20.17;72.00;101189.34;5071838;28;20181;-73
2021/06/08 11:03:55;;;;;;;7.67;7.00;;;;;;;19.97;70.44;101185.66;5071509;28;20202;-73
2021/06/08 11:06:51;;;;;;;7.53;6.93;;;;;;;19.97;70.60;101193.19;5071245;28;20251;-73
2021/06/08 11:09:17;;;;;;;8.07;7.47;;;;;;;20.05;72.42;101189.41;5071886;28;20725;-73
2021/06/08 11:11:59;;;;;;;5.33;4.93;;;;;;;20.25;68.54;101190.28;5070671;28;20197;-73
2021/06/08 11:14:54;;;;;;;7.43;6.73;;;;;;;20.57;68.48;101183.59;5072002;28;20202;-73
2021/06/08 11:17:41;;;;;;;7.10;6.50;;;;;;;20.19;68.00;101192.56;5071322;28;20253;-73